Arock, Oregon
Current Conditions -  °F | °C
As of 4:35 AM on Friday 31 Oct 2014 (Local Time) from KEUL Reporting Station
Clear Clear  
Wind Chill:   Ceiling: Unl
Heat Index:   Visibility: 10mi
Dew Point:   Wind: 6mph
Humidity: 71%   Direction: 310°NW
Pressure: 29.82"   Gusts: NA
Location:  42.91°N, 117.53°W
Report Text: KEUL 311035Z AUTO 31005KT 10SM CLR 07/02 A2982 RMK AO1
Loading
Personal Weather Stations






























Interactive Weather Map New forecast layout! Learn more

10-Day Weather Forecast

Advertisements
Track Severe Weather on mobile